Hopewell Junction, NY (12533)

2:41 AM EST on March 02, 2015 (GMT -0500)
Hopewell Junction | Change Station
CLOSE
Current Station
Personal Weather Station
Location: Hopewell Junction, NY
Elevation: 295 ft
Nearby Weather Stations
Active Advisory: Winter Weather Advisory Active Notice: Public Information Statement

Elev 295 ft 41.60 °N, 73.80 °W | Updated 41 minutes ago

Overcast
Overcast
24.0 °F
Feels Like 24 °F
N
0.0
Wind Variable Wind from North

Today
High -- | Low -- °F
--% Chance of Precip.
Yesterday
High -- | Low -- °F
Precip. -- in
6:28 AM 5:46 PM
Waxing Gibbous, 90% visible
Pressure 30.06 in
Visibility 8.0 miles
Clouds Overcast 6500 ft
Windchill 24 °F
Dew Point 22 °F
Humidity 93%
Rainfall 0.00 in
Snow Depth Not available.
UV 0 out of 12
Pollen .40 out of 12
Air Quality Not available.
Flu Activity Not available.
METAR KPOU 020653Z 19003KT 8SM OVC065 M04/M06 A3006 RMK AO2 SLP180 T10391061

More Conditions Fewer Conditions

Pressure 30.06 in
Visibility 8.0 miles
Clouds Overcast 6500 ft
Windchill 24 °F
Dew Point 22 °F
Humidity 93%
Rainfall 0.00 in
Snow Depth Not available.
UV 0 out of 12
Pollen .40 out of 12
Air Quality Not available.
Flu Activity Not available.
METAR KPOU 020653Z 19003KT 8SM OVC065 M04/M06 A3006 RMK AO2 SLP180 T10391061

More Conditions Fewer Conditions

10-Day Weather Forecast

Almanac

Astronomy

Mar. 02, 2015 Rise Set
Actual Time
Civil Twilight
Nautical Twilight
Astronomical Twilight
Moon
Length of Visible Light
Length of Day
Tomorrow will be .
, % of the Moon is Illuminated

Today's Extremes

State Highs State Lows

Community

WunderPhotos

Upload Photos

1,801,739 photos uploaded!

WunderBlogs® & News

Nearby

Air Quality

  Air Quality AQ Index Pollutant
Not available.

Snow Depth

Station Depth Elevation

Earthquake Activity

City Distance Mag. Time & Date
Minimum magnitude displayed is 2.5.

Coastal Water Temperatures

Place Temperature

Nearby Weather Stations

Winter Weather Advisory
Statement as of 12:39 AM EST on March 02, 2015

... Winter Weather Advisory remains in effect until 7 am EST this
morning...

* locations... Herkimer County... the Mohawk Valley... Schoharie
valley... eastern Catskills... Mid Hudson valley... Taconics...
Litchfield Hills... the Berkshires and southern Green Mountains.

* Hazard types... light snow.

* Snow accumulations... additional snowfall accumulations of an
inch or less through early this morning.

* Timing... periods of light snow will continue through the early
morning hours before gradually tapering off by daybreak Monday.

* Impacts... snow covered roads and reduced visibility resulting
in hazardous travel conditions.

* Winds... south 5 to 15 mph shifting to the west by daybreak.

* Temperatures... in the upper teens to mid 20s.

Precautionary/preparedness actions...

A Winter Weather Advisory for snow means that periods of snow
will cause primarily travel difficulties. Be prepared for snow
covered roads and limited visibilities... and use caution while
driving.